METAR Data
IDs: Format: Raw Decoded Include TAF

Data at: 1603 UTC 22 Sep 2019

KHWD 221554Z 00000KT 10SM CLR 18/11 A2994 RMK AO2 SLP147 T01830111
No TAF found for KHWD

KBFL 221554Z 14004KT 10SM CLR 22/06 A2994 RMK AO2 SLP134 T02220056

KBFL 221120Z 2212/2312 VRB01KT P6SM FEW200
  FM221500 VRB03KT P6SM SCT200
  FM221800 30007KT P6SM BKN200
  FM230300 34007KT P6SM SCT200
  FM230900 VRB03KT P6SM FEW200


KIFP 221551Z 00000KT 20SM SCT140 23/M04 A2996

KIFP 221141Z 2212/2312 VRB05KT P6SM FEW250
  FM222200 18008KT P6SM BKN250
  FM230300 14007KT P6SM BKN250